sensor_id;sensor_type;location;lat;lon;timestamp;P1;durP1;ratioP1;P2;durP2;ratioP2
51146;SDS011;37207;53.060;18.726;2023-02-01T00:00:53;16.30;;;2.70;;
51146;SDS011;37207;53.060;18.726;2023-02-01T00:03:25;20.50;;;7.30;;
51146;SDS011;37207;53.060;18.726;2023-02-01T00:05:58;12.50;;;4.90;;
51146;SDS011;37207;53.060;18.726;2023-02-01T00:08:26;10.30;;;2.40;;
51146;SDS011;37207;53.060;18.726;2023-02-01T00:11:00;13.30;;;2.70;;
51146;SDS011;37207;53.060;18.726;2023-02-01T00:13:29;4.50;;;1.80;;
51146;SDS011;37207;53.060;18.726;2023-02-01T00:16:07;12.00;;;2.70;;
51146;SDS011;37207;53.060;18.726;2023-02-01T00:18:38;13.40;;;4.90;;
51146;SDS011;37207;53.060;18.726;2023-02-01T00:21:05;15.80;;;4.80;;
51146;SDS011;37207;53.060;18.726;2023-02-01T00:23:32;14.80;;;5.70;;
51146;SDS011;37207;53.060;18.726;2023-02-01T00:28:28;7.40;;;4.50;;
51146;SDS011;37207;53.060;18.726;2023-02-01T00:30:56;18.80;;;7.90;;
51146;SDS011;37207;53.060;18.726;2023-02-01T00:33:27;24.70;;;10.10;;
51146;SDS011;37207;53.060;18.726;2023-02-01T00:36:04;46.90;;;13.10;;
51146;SDS011;37207;53.060;18.726;2023-02-01T00:38:33;108.00;;;44.40;;
51146;SDS011;37207;53.060;18.726;2023-02-01T00:41:12;46.60;;;10.10;;
51146;SDS011;37207;53.060;18.726;2023-02-01T00:43:40;35.00;;;8.10;;
51146;SDS011;37207;53.060;18.726;2023-02-01T00:46:08;34.80;;;12.70;;
51146;SDS011;37207;53.060;18.726;2023-02-01T00:48:35;44.30;;;14.90;;
51146;SDS011;37207;53.060;18.726;2023-02-01T00:51:06;49.80;;;18.00;;
51146;SDS011;37207;53.060;18.726;2023-02-01T00:53:35;17.10;;;3.70;;
51146;SDS011;37207;53.060;18.726;2023-02-01T00:56:02;26.40;;;5.90;;
51146;SDS011;37207;53.060;18.726;2023-02-01T00:58:30;42.10;;;15.40;;
51146;SDS011;37207;53.060;18.726;2023-02-01T01:03:26;20.90;;;5.70;;
51146;SDS011;37207;53.060;18.726;2023-02-01T01:05:56;21.00;;;3.40;;
51146;SDS011;37207;53.060;18.726;2023-02-01T01:08:23;9.50;;;3.00;;
51146;SDS011;37207;53.060;18.726;2023-02-01T01:10:50;21.60;;;7.30;;
51146;SDS011;37207;53.060;18.726;2023-02-01T01:13:16;23.80;;;9.00;;
51146;SDS011;37207;53.060;18.726;2023-02-01T01:15:43;25.60;;;7.50;;
51146;SDS011;37207;53.060;18.726;2023-02-01T01:18:10;15.60;;;7.40;;
51146;SDS011;37207;53.060;18.726;2023-02-01T01:20:38;15.00;;;2.30;;
51146;SDS011;37207;53.060;18.726;2023-02-01T01:23:06;17.70;;;3.60;;
51146;SDS011;37207;53.060;18.726;2023-02-01T01:25:40;15.90;;;4.10;;
51146;SDS011;37207;53.060;18.726;2023-02-01T01:28:07;11.30;;;2.30;;
51146;SDS011;37207;53.060;18.726;2023-02-01T01:30:34;11.80;;;3.10;;
51146;SDS011;37207;53.060;18.726;2023-02-01T01:33:01;16.80;;;5.30;;
51146;SDS011;37207;53.060;18.726;2023-02-01T01:35:30;16.30;;;5.00;;
51146;SDS011;37207;53.060;18.726;2023-02-01T01:37:58;15.70;;;5.00;;
51146;SDS011;37207;53.060;18.726;2023-02-01T01:40:26;13.80;;;3.10;;
51146;SDS011;37207;53.060;18.726;2023-02-01T01:42:54;17.70;;;3.10;;
51146;SDS011;37207;53.060;18.726;2023-02-01T01:45:28;18.30;;;4.50;;
51146;SDS011;37207;53.060;18.726;2023-02-01T01:50:33;11.50;;;4.50;;
51146;SDS011;37207;53.060;18.726;2023-02-01T01:53:07;17.10;;;4.60;;
51146;SDS011;37207;53.060;18.726;2023-02-01T01:55:38;14.60;;;3.50;;
51146;SDS011;37207;53.060;18.726;2023-02-01T01:58:10;10.30;;;3.90;;
51146;SDS011;37207;53.060;18.726;2023-02-01T02:00:40;7.40;;;1.30;;
51146;SDS011;37207;53.060;18.726;2023-02-01T02:03:15;4.30;;;1.40;;
51146;SDS011;37207;53.060;18.726;2023-02-01T02:06:16;3.70;;;1.50;;
51146;SDS011;37207;53.060;18.726;2023-02-01T02:08:54;6.10;;;2.00;;
51146;SDS011;37207;53.060;18.726;2023-02-01T02:11:21;9.40;;;3.50;;
51146;SDS011;37207;53.060;18.726;2023-02-01T02:13:48;17.20;;;4.80;;
51146;SDS011;37207;53.060;18.726;2023-02-01T02:19:22;16.20;;;5.00;;
51146;SDS011;37207;53.060;18.726;2023-02-01T02:30:55;15.40;;;2.10;;
51146;SDS011;37207;53.060;18.726;2023-02-01T02:41:48;12.90;;;3.40;;
51146;SDS011;37207;53.060;18.726;2023-02-01T02:45:18;9.70;;;2.00;;
51146;SDS011;37207;53.060;18.726;2023-02-01T02:48:14;14.00;;;3.20;;
51146;SDS011;37207;53.060;18.726;2023-02-01T02:51:34;13.70;;;6.10;;
51146;SDS011;37207;53.060;18.726;2023-02-01T02:56:48;9.40;;;2.20;;
51146;SDS011;37207;53.060;18.726;2023-02-01T02:59:35;12.20;;;2.00;;
51146;SDS011;37207;53.060;18.726;2023-02-01T03:02:22;18.50;;;3.20;;
51146;SDS011;37207;53.060;18.726;2023-02-01T03:05:12;5.90;;;2.10;;
51146;SDS011;37207;53.060;18.726;2023-02-01T03:07:50;24.10;;;6.00;;
51146;SDS011;37207;53.060;18.726;2023-02-01T03:10:37;15.80;;;5.80;;
51146;SDS011;37207;53.060;18.726;2023-02-01T03:13:13;14.70;;;2.90;;
51146;SDS011;37207;53.060;18.726;2023-02-01T03:16:00;14.60;;;1.90;;
51146;SDS011;37207;53.060;18.726;2023-02-01T03:18:36;7.30;;;2.00;;
51146;SDS011;37207;53.060;18.726;2023-02-01T03:21:21;4.80;;;2.00;;
51146;SDS011;37207;53.060;18.726;2023-02-01T03:23:53;7.60;;;2.40;;
51146;SDS011;37207;53.060;18.726;2023-02-01T03:26:24;20.80;;;5.10;;
51146;SDS011;37207;53.060;18.726;2023-02-01T03:28:55;16.20;;;4.80;;
51146;SDS011;37207;53.060;18.726;2023-02-01T03:31:28;15.50;;;5.10;;
51146;SDS011;37207;53.060;18.726;2023-02-01T03:33:55;17.00;;;4.40;;
51146;SDS011;37207;53.060;18.726;2023-02-01T03:36:26;13.10;;;1.70;;
51146;SDS011;37207;53.060;18.726;2023-02-01T03:41:55;13.10;;;2.50;;
51146;SDS011;37207;53.060;18.726;2023-02-01T03:46:59;20.30;;;6.20;;
51146;SDS011;37207;53.060;18.726;2023-02-01T03:49:52;17.70;;;5.00;;
51146;SDS011;37207;53.060;18.726;2023-02-01T03:52:24;22.50;;;5.60;;
51146;SDS011;37207;53.060;18.726;2023-02-01T03:54:55;22.80;;;6.40;;
51146;SDS011;37207;53.060;18.726;2023-02-01T03:57:26;12.80;;;3.30;;
51146;SDS011;37207;53.060;18.726;2023-02-01T04:00:03;8.20;;;3.10;;
51146;SDS011;37207;53.060;18.726;2023-02-01T04:02:40;20.60;;;5.50;;
51146;SDS011;37207;53.060;18.726;2023-02-01T04:05:07;18.10;;;5.30;;
51146;SDS011;37207;53.060;18.726;2023-02-01T04:07:34;14.60;;;5.10;;
51146;SDS011;37207;53.060;18.726;2023-02-01T04:10:01;19.60;;;5.70;;
51146;SDS011;37207;53.060;18.726;2023-02-01T04:12:29;10.30;;;2.30;;
51146;SDS011;37207;53.060;18.726;2023-02-01T04:14:56;12.60;;;2.10;;
51146;SDS011;37207;53.060;18.726;2023-02-01T04:17:22;19.40;;;2.60;;
51146;SDS011;37207;53.060;18.726;2023-02-01T04:19:49;17.70;;;4.90;;
51146;SDS011;37207;53.060;18.726;2023-02-01T04:22:16;17.30;;;5.70;;
51146;SDS011;37207;53.060;18.726;2023-02-01T04:24:42;15.90;;;5.20;;
51146;SDS011;37207;53.060;18.726;2023-02-01T04:27:09;17.40;;;5.20;;
51146;SDS011;37207;53.060;18.726;2023-02-01T04:29:35;19.70;;;2.80;;
51146;SDS011;37207;53.060;18.726;2023-02-01T04:32:02;19.60;;;7.90;;
51146;SDS011;37207;53.060;18.726;2023-02-01T04:34:28;15.40;;;6.10;;
51146;SDS011;37207;53.060;18.726;2023-02-01T04:36:55;25.40;;;12.30;;
51146;SDS011;37207;53.060;18.726;2023-02-01T04:39:21;26.00;;;7.00;;
51146;SDS011;37207;53.060;18.726;2023-02-01T04:41:48;24.20;;;4.90;;
51146;SDS011;37207;53.060;18.726;2023-02-01T04:44:18;22.90;;;7.20;;
51146;SDS011;37207;53.060;18.726;2023-02-01T04:46:46;22.70;;;6.60;;
51146;SDS011;37207;53.060;18.726;2023-02-01T04:49:13;17.40;;;5.10;;
51146;SDS011;37207;53.060;18.726;2023-02-01T04:51:41;5.80;;;2.00;;
51146;SDS011;37207;53.060;18.726;2023-02-01T04:54:08;10.50;;;2.20;;
51146;SDS011;37207;53.060;18.726;2023-02-01T04:59:05;6.70;;;2.50;;
51146;SDS011;37207;53.060;18.726;2023-02-01T05:01:32;20.00;;;5.70;;
51146;SDS011;37207;53.060;18.726;2023-02-01T05:03:59;14.90;;;5.30;;
51146;SDS011;37207;53.060;18.726;2023-02-01T05:06:25;25.00;;;7.30;;
51146;SDS011;37207;53.060;18.726;2023-02-01T05:08:52;21.00;;;8.90;;
51146;SDS011;37207;53.060;18.726;2023-02-01T05:11:18;22.00;;;8.10;;
51146;SDS011;37207;53.060;18.726;2023-02-01T05:14:03;13.50;;;5.50;;
51146;SDS011;37207;53.060;18.726;2023-02-01T05:16:30;24.30;;;6.50;;
51146;SDS011;37207;53.060;18.726;2023-02-01T05:18:57;10.40;;;3.20;;
51146;SDS011;37207;53.060;18.726;2023-02-01T05:21:24;20.80;;;8.10;;
51146;SDS011;37207;53.060;18.726;2023-02-01T05:23:51;24.00;;;7.30;;
51146;SDS011;37207;53.060;18.726;2023-02-01T05:26:36;19.10;;;8.10;;
51146;SDS011;37207;53.060;18.726;2023-02-01T05:29:04;15.90;;;3.60;;
51146;SDS011;37207;53.060;18.726;2023-02-01T05:31:31;9.80;;;2.40;;
51146;SDS011;37207;53.060;18.726;2023-02-01T05:33:58;19.30;;;5.50;;
51146;SDS011;37207;53.060;18.726;2023-02-01T05:36:24;21.80;;;7.30;;
51146;SDS011;37207;53.060;18.726;2023-02-01T05:38:51;14.80;;;5.60;;
51146;SDS011;37207;53.060;18.726;2023-02-01T05:41:18;16.10;;;6.00;;
51146;SDS011;37207;53.060;18.726;2023-02-01T05:43:45;14.80;;;5.30;;
51146;SDS011;37207;53.060;18.726;2023-02-01T05:46:11;16.20;;;5.30;;
51146;SDS011;37207;53.060;18.726;2023-02-01T05:48:39;14.60;;;4.80;;
51146;SDS011;37207;53.060;18.726;2023-02-01T05:51:06;18.90;;;5.50;;
51146;SDS011;37207;53.060;18.726;2023-02-01T05:53:33;20.70;;;6.00;;
51146;SDS011;37207;53.060;18.726;2023-02-01T05:55:59;26.30;;;7.40;;
51146;SDS011;37207;53.060;18.726;2023-02-01T05:58:26;37.40;;;12.50;;
51146;SDS011;37207;53.060;18.726;2023-02-01T06:00:53;22.20;;;6.70;;
51146;SDS011;37207;53.060;18.726;2023-02-01T06:03:20;26.30;;;7.60;;
51146;SDS011;37207;53.060;18.726;2023-02-01T06:05:47;32.80;;;16.60;;
51146;SDS011;37207;53.060;18.726;2023-02-01T06:08:14;31.40;;;13.00;;
51146;SDS011;37207;53.060;18.726;2023-02-01T06:10:40;29.60;;;15.20;;
51146;SDS011;37207;53.060;18.726;2023-02-01T06:13:07;52.40;;;18.10;;
51146;SDS011;37207;53.060;18.726;2023-02-01T06:15:34;44.80;;;18.60;;
51146;SDS011;37207;53.060;18.726;2023-02-01T06:18:03;28.30;;;9.50;;
51146;SDS011;37207;53.060;18.726;2023-02-01T06:20:30;23.00;;;9.40;;
51146;SDS011;37207;53.060;18.726;2023-02-01T06:22:57;24.20;;;7.20;;
51146;SDS011;37207;53.060;18.726;2023-02-01T06:25:23;18.10;;;6.50;;
51146;SDS011;37207;53.060;18.726;2023-02-01T06:27:50;16.60;;;6.40;;
51146;SDS011;37207;53.060;18.726;2023-02-01T06:30:16;37.30;;;11.20;;
51146;SDS011;37207;53.060;18.726;2023-02-01T06:32:44;54.00;;;19.80;;
51146;SDS011;37207;53.060;18.726;2023-02-01T06:35:10;40.50;;;18.00;;
51146;SDS011;37207;53.060;18.726;2023-02-01T06:37:42;27.00;;;9.00;;
51146;SDS011;37207;53.060;18.726;2023-02-01T06:40:09;14.60;;;6.90;;
51146;SDS011;37207;53.060;18.726;2023-02-01T06:42:36;18.90;;;6.20;;
51146;SDS011;37207;53.060;18.726;2023-02-01T06:45:03;19.70;;;6.90;;
51146;SDS011;37207;53.060;18.726;2023-02-01T06:47:30;27.70;;;8.70;;
51146;SDS011;37207;53.060;18.726;2023-02-01T06:49:56;16.30;;;7.40;;
51146;SDS011;37207;53.060;18.726;2023-02-01T06:52:23;18.50;;;6.50;;
51146;SDS011;37207;53.060;18.726;2023-02-01T06:54:49;16.30;;;6.30;;
51146;SDS011;37207;53.060;18.726;2023-02-01T06:57:16;8.60;;;3.30;;
51146;SDS011;37207;53.060;18.726;2023-02-01T06:59:42;22.50;;;7.60;;
51146;SDS011;37207;53.060;18.726;2023-02-01T07:02:10;16.20;;;6.60;;
51146;SDS011;37207;53.060;18.726;2023-02-01T07:04:38;9.20;;;4.50;;
51146;SDS011;37207;53.060;18.726;2023-02-01T07:07:04;18.00;;;7.00;;
51146;SDS011;37207;53.060;18.726;2023-02-01T07:09:31;15.90;;;5.80;;
51146;SDS011;37207;53.060;18.726;2023-02-01T07:11:57;20.40;;;5.70;;
51146;SDS011;37207;53.060;18.726;2023-02-01T07:14:24;17.30;;;5.70;;
51146;SDS011;37207;53.060;18.726;2023-02-01T07:16:50;19.60;;;7.20;;
51146;SDS011;37207;53.060;18.726;2023-02-01T07:19:17;19.90;;;6.80;;
51146;SDS011;37207;53.060;18.726;2023-02-01T07:21:44;30.80;;;6.80;;
51146;SDS011;37207;53.060;18.726;2023-02-01T07:24:10;14.80;;;5.80;;
51146;SDS011;37207;53.060;18.726;2023-02-01T07:26:37;18.80;;;7.00;;
51146;SDS011;37207;53.060;18.726;2023-02-01T07:29:03;21.40;;;6.80;;
51146;SDS011;37207;53.060;18.726;2023-02-01T07:31:30;17.80;;;7.10;;
51146;SDS011;37207;53.060;18.726;2023-02-01T07:33:57;18.50;;;7.70;;
51146;SDS011;37207;53.060;18.726;2023-02-01T07:36:24;27.60;;;11.00;;
51146;SDS011;37207;53.060;18.726;2023-02-01T07:38:51;26.30;;;13.30;;
51146;SDS011;37207;53.060;18.726;2023-02-01T07:41:18;47.90;;;23.50;;
51146;SDS011;37207;53.060;18.726;2023-02-01T07:43:44;29.10;;;14.60;;
51146;SDS011;37207;53.060;18.726;2023-02-01T07:46:11;27.40;;;14.60;;
51146;SDS011;37207;53.060;18.726;2023-02-01T07:48:38;20.60;;;10.40;;
51146;SDS011;37207;53.060;18.726;2023-02-01T07:51:07;23.00;;;9.30;;
51146;SDS011;37207;53.060;18.726;2023-02-01T07:53:36;21.40;;;9.80;;
51146;SDS011;37207;53.060;18.726;2023-02-01T07:56:03;19.50;;;9.00;;
51146;SDS011;37207;53.060;18.726;2023-02-01T07:58:34;23.70;;;9.20;;
51146;SDS011;37207;53.060;18.726;2023-02-01T08:01:01;24.90;;;8.60;;
51146;SDS011;37207;53.060;18.726;2023-02-01T08:04:04;119.10;;;56.00;;
51146;SDS011;37207;53.060;18.726;2023-02-01T08:06:31;62.00;;;33.30;;
51146;SDS011;37207;53.060;18.726;2023-02-01T08:09:00;28.10;;;13.10;;
51146;SDS011;37207;53.060;18.726;2023-02-01T08:11:28;28.60;;;11.80;;
51146;SDS011;37207;53.060;18.726;2023-02-01T08:13:55;45.10;;;13.60;;
51146;SDS011;37207;53.060;18.726;2023-02-01T08:16:22;17.20;;;7.40;;
51146;SDS011;37207;53.060;18.726;2023-02-01T08:18:49;33.20;;;12.20;;
51146;SDS011;37207;53.060;18.726;2023-02-01T08:21:18;22.20;;;9.00;;
51146;SDS011;37207;53.060;18.726;2023-02-01T08:23:46;37.90;;;17.10;;
51146;SDS011;37207;53.060;18.726;2023-02-01T08:26:14;19.30;;;9.20;;
51146;SDS011;37207;53.060;18.726;2023-02-01T08:28:46;23.70;;;10.90;;
51146;SDS011;37207;53.060;18.726;2023-02-01T08:31:15;16.60;;;8.70;;
51146;SDS011;37207;53.060;18.726;2023-02-01T08:33:47;30.40;;;12.00;;
51146;SDS011;37207;53.060;18.726;2023-02-01T08:36:15;13.70;;;7.30;;
51146;SDS011;37207;53.060;18.726;2023-02-01T08:38:42;14.50;;;6.00;;
51146;SDS011;37207;53.060;18.726;2023-02-01T08:41:09;18.50;;;8.00;;
51146;SDS011;37207;53.060;18.726;2023-02-01T08:43:38;20.30;;;8.10;;
51146;SDS011;37207;53.060;18.726;2023-02-01T08:46:06;14.60;;;5.90;;
51146;SDS011;37207;53.060;18.726;2023-02-01T08:48:33;14.30;;;6.50;;
51146;SDS011;37207;53.060;18.726;2023-02-01T08:51:05;23.10;;;8.80;;
51146;SDS011;37207;53.060;18.726;2023-02-01T08:53:36;15.30;;;7.20;;
51146;SDS011;37207;53.060;18.726;2023-02-01T08:56:07;14.10;;;6.30;;
51146;SDS011;37207;53.060;18.726;2023-02-01T08:58:34;14.10;;;6.10;;
51146;SDS011;37207;53.060;18.726;2023-02-01T09:01:04;13.10;;;5.80;;
51146;SDS011;37207;53.060;18.726;2023-02-01T09:03:32;13.00;;;6.20;;
51146;SDS011;37207;53.060;18.726;2023-02-01T09:06:02;16.60;;;7.00;;
51146;SDS011;37207;53.060;18.726;2023-02-01T09:08:30;19.80;;;7.20;;
51146;SDS011;37207;53.060;18.726;2023-02-01T09:10:58;16.30;;;5.50;;
51146;SDS011;37207;53.060;18.726;2023-02-01T09:13:27;11.40;;;6.00;;
51146;SDS011;37207;53.060;18.726;2023-02-01T09:15:54;19.40;;;6.40;;
51146;SDS011;37207;53.060;18.726;2023-02-01T09:18:21;14.60;;;7.40;;
51146;SDS011;37207;53.060;18.726;2023-02-01T09:20:47;18.40;;;8.50;;
51146;SDS011;37207;53.060;18.726;2023-02-01T09:23:14;42.30;;;21.70;;
51146;SDS011;37207;53.060;18.726;2023-02-01T09:25:41;36.10;;;18.80;;
51146;SDS011;37207;53.060;18.726;2023-02-01T09:28:07;32.70;;;18.40;;
51146;SDS011;37207;53.060;18.726;2023-02-01T09:30:35;15.80;;;11.00;;
51146;SDS011;37207;53.060;18.726;2023-02-01T09:33:03;15.10;;;7.10;;
51146;SDS011;37207;53.060;18.726;2023-02-01T09:35:30;12.90;;;6.70;;
51146;SDS011;37207;53.060;18.726;2023-02-01T09:37:57;20.10;;;13.90;;
51146;SDS011;37207;53.060;18.726;2023-02-01T09:40:24;24.90;;;14.80;;
51146;SDS011;37207;53.060;18.726;2023-02-01T09:48:13;10.70;;;5.70;;
51146;SDS011;37207;53.060;18.726;2023-02-01T09:50:48;16.60;;;8.80;;
51146;SDS011;37207;53.060;18.726;2023-02-01T09:53:21;14.10;;;8.30;;
51146;SDS011;37207;53.060;18.726;2023-02-01T09:55:55;11.20;;;7.50;;
51146;SDS011;37207;53.060;18.726;2023-02-01T09:58:30;9.70;;;6.90;;
51146;SDS011;37207;53.060;18.726;2023-02-01T10:01:04;12.80;;;7.60;;
51146;SDS011;37207;53.060;18.726;2023-02-01T10:03:36;16.90;;;6.60;;
51146;SDS011;37207;53.060;18.726;2023-02-01T10:20:30;25.10;;;11.10;;
51146;SDS011;37207;53.060;18.726;2023-02-01T10:23:46;21.80;;;11.40;;
51146;SDS011;37207;53.060;18.726;2023-02-01T10:26:33;32.90;;;15.20;;
51146;SDS011;37207;53.060;18.726;2023-02-01T10:29:04;28.40;;;11.70;;
51146;SDS011;37207;53.060;18.726;2023-02-01T10:31:42;13.10;;;6.40;;
51146;SDS011;37207;53.060;18.726;2023-02-01T10:34:15;16.60;;;6.70;;
51146;SDS011;37207;53.060;18.726;2023-02-01T10:39:48;11.20;;;5.30;;
51146;SDS011;37207;53.060;18.726;2023-02-01T10:42:18;12.60;;;5.40;;
51146;SDS011;37207;53.060;18.726;2023-02-01T10:44:48;15.30;;;5.70;;
51146;SDS011;37207;53.060;18.726;2023-02-01T10:47:14;12.40;;;6.10;;
51146;SDS011;37207;53.060;18.726;2023-02-01T10:49:55;20.50;;;8.10;;
51146;SDS011;37207;53.060;18.726;2023-02-01T10:52:33;31.00;;;17.10;;
51146;SDS011;37207;53.060;18.726;2023-02-01T10:57:57;27.30;;;11.30;;
51146;SDS011;37207;53.060;18.726;2023-02-01T11:00:26;15.30;;;6.90;;
51146;SDS011;37207;53.060;18.726;2023-02-01T11:02:53;13.60;;;6.70;;
51146;SDS011;37207;53.060;18.726;2023-02-01T11:05:21;20.50;;;6.30;;
51146;SDS011;37207;53.060;18.726;2023-02-01T11:07:50;22.60;;;7.40;;
51146;SDS011;37207;53.060;18.726;2023-02-01T11:10:35;14.00;;;5.30;;
51146;SDS011;37207;53.060;18.726;2023-02-01T11:13:14;14.50;;;5.50;;
51146;SDS011;37207;53.060;18.726;2023-02-01T11:15:43;16.50;;;6.40;;
51146;SDS011;37207;53.060;18.726;2023-02-01T11:18:24;15.40;;;6.10;;
51146;SDS011;37207;53.060;18.726;2023-02-01T11:20:54;18.60;;;6.10;;
51146;SDS011;37207;53.060;18.726;2023-02-01T11:23:23;14.80;;;5.60;;
51146;SDS011;37207;53.060;18.726;2023-02-01T11:25:56;21.90;;;7.90;;
51146;SDS011;37207;53.060;18.726;2023-02-01T11:28:32;21.90;;;6.80;;
51146;SDS011;37207;53.060;18.726;2023-02-01T11:31:05;42.00;;;15.80;;
51146;SDS011;37207;53.060;18.726;2023-02-01T11:33:37;45.60;;;18.60;;
51146;SDS011;37207;53.060;18.726;2023-02-01T11:36:09;20.70;;;11.00;;
51146;SDS011;37207;53.060;18.726;2023-02-01T11:38:40;48.90;;;25.20;;
51146;SDS011;37207;53.060;18.726;2023-02-01T11:41:19;23.40;;;10.60;;
51146;SDS011;37207;53.060;18.726;2023-02-01T11:43:54;15.10;;;5.70;;
51146;SDS011;37207;53.060;18.726;2023-02-01T11:46:27;20.10;;;9.10;;
51146;SDS011;37207;53.060;18.726;2023-02-01T11:54:24;17.00;;;7.20;;
51146;SDS011;37207;53.060;18.726;2023-02-01T12:19:15;18.60;;;8.40;;
51146;SDS011;37207;53.060;18.726;2023-02-01T12:21:46;20.40;;;8.90;;
51146;SDS011;37207;53.060;18.726;2023-02-01T12:24:42;22.20;;;8.50;;
51146;SDS011;37207;53.060;18.726;2023-02-01T12:27:45;14.50;;;7.70;;
51146;SDS011;37207;53.060;18.726;2023-02-01T12:30:28;18.10;;;8.10;;
51146;SDS011;37207;53.060;18.726;2023-02-01T12:38:46;15.70;;;8.00;;
51146;SDS011;37207;53.060;18.726;2023-02-01T12:43:56;21.80;;;12.70;;
51146;SDS011;37207;53.060;18.726;2023-02-01T12:46:32;12.60;;;9.60;;
51146;SDS011;37207;53.060;18.726;2023-02-01T12:49:06;18.00;;;10.60;;
51146;SDS011;37207;53.060;18.726;2023-02-01T12:51:37;10.30;;;6.90;;
51146;SDS011;37207;53.060;18.726;2023-02-01T12:57:21;10.40;;;7.20;;
51146;SDS011;37207;53.060;18.726;2023-02-01T13:00:05;15.90;;;9.60;;
51146;SDS011;37207;53.060;18.726;2023-02-01T13:08:25;13.00;;;6.20;;
51146;SDS011;37207;53.060;18.726;2023-02-01T13:11:03;21.40;;;13.40;;
51146;SDS011;37207;53.060;18.726;2023-02-01T13:16:42;33.60;;;16.10;;
51146;SDS011;37207;53.060;18.726;2023-02-01T13:22:13;55.40;;;23.50;;
51146;SDS011;37207;53.060;18.726;2023-02-01T13:27:40;28.30;;;15.60;;
51146;SDS011;37207;53.060;18.726;2023-02-01T13:30:29;18.20;;;14.10;;
51146;SDS011;37207;53.060;18.726;2023-02-01T13:33:13;12.80;;;10.10;;
51146;SDS011;37207;53.060;18.726;2023-02-01T13:44:09;11.60;;;9.60;;
51146;SDS011;37207;53.060;18.726;2023-02-01T13:46:41;6.50;;;5.80;;
51146;SDS011;37207;53.060;18.726;2023-02-01T13:49:18;4.90;;;4.20;;
51146;SDS011;37207;53.060;18.726;2023-02-01T13:51:49;8.90;;;7.70;;
51146;SDS011;37207;53.060;18.726;2023-02-01T13:54:36;16.80;;;12.80;;
51146;SDS011;37207;53.060;18.726;2023-02-01T13:57:06;42.00;;;21.70;;
51146;SDS011;37207;53.060;18.726;2023-02-01T14:23:56;41.90;;;18.90;;
51146;SDS011;37207;53.060;18.726;2023-02-01T14:26:40;9.20;;;6.10;;
51146;SDS011;37207;53.060;18.726;2023-02-01T14:31:47;10.40;;;7.50;;
51146;SDS011;37207;53.060;18.726;2023-02-01T14:34:21;8.40;;;4.70;;
51146;SDS011;37207;53.060;18.726;2023-02-01T14:37:01;9.00;;;6.10;;
51146;SDS011;37207;53.060;18.726;2023-02-01T14:44:48;14.00;;;10.20;;
51146;SDS011;37207;53.060;18.726;2023-02-01T14:52:37;18.20;;;14.30;;
51146;SDS011;37207;53.060;18.726;2023-02-01T14:55:11;16.60;;;11.80;;
51146;SDS011;37207;53.060;18.726;2023-02-01T14:57:43;12.20;;;10.70;;
51146;SDS011;37207;53.060;18.726;2023-02-01T15:02:53;5.00;;;2.40;;
51146;SDS011;37207;53.060;18.726;2023-02-01T15:05:31;6.90;;;2.20;;
51146;SDS011;37207;53.060;18.726;2023-02-01T15:08:03;2.90;;;1.90;;
51146;SDS011;37207;53.060;18.726;2023-02-01T15:10:44;8.60;;;5.90;;
51146;SDS011;37207;53.060;18.726;2023-02-01T15:13:21;7.00;;;5.30;;
51146;SDS011;37207;53.060;18.726;2023-02-01T15:16:09;6.80;;;5.00;;
51146;SDS011;37207;53.060;18.726;2023-02-01T15:18:39;15.90;;;14.10;;
51146;SDS011;37207;53.060;18.726;2023-02-01T15:21:14;21.40;;;12.60;;
51146;SDS011;37207;53.060;18.726;2023-02-01T15:23:47;10.40;;;8.60;;
51146;SDS011;37207;53.060;18.726;2023-02-01T15:26:25;14.00;;;12.00;;
51146;SDS011;37207;53.060;18.726;2023-02-01T15:28:56;15.00;;;12.90;;
51146;SDS011;37207;53.060;18.726;2023-02-01T15:31:58;10.70;;;7.60;;
51146;SDS011;37207;53.060;18.726;2023-02-01T15:34:19;13.70;;;11.70;;
51146;SDS011;37207;53.060;18.726;2023-02-01T15:36:47;8.20;;;3.60;;
51146;SDS011;37207;53.060;18.726;2023-02-01T15:39:24;13.90;;;5.60;;
51146;SDS011;37207;53.060;18.726;2023-02-01T15:41:55;9.10;;;7.50;;
51146;SDS011;37207;53.060;18.726;2023-02-01T15:46:54;12.30;;;8.90;;
51146;SDS011;37207;53.060;18.726;2023-02-01T15:49:26;23.30;;;15.20;;
51146;SDS011;37207;53.060;18.726;2023-02-01T15:51:55;19.60;;;16.20;;
51146;SDS011;37207;53.060;18.726;2023-02-01T15:54:28;16.40;;;10.30;;
51146;SDS011;37207;53.060;18.726;2023-02-01T15:57:00;26.90;;;13.00;;
51146;SDS011;37207;53.060;18.726;2023-02-01T15:59:32;21.30;;;13.70;;
51146;SDS011;37207;53.060;18.726;2023-02-01T16:07:57;58.40;;;26.10;;
51146;SDS011;37207;53.060;18.726;2023-02-01T16:10:31;48.00;;;26.00;;
51146;SDS011;37207;53.060;18.726;2023-02-01T16:13:03;50.60;;;31.90;;
51146;SDS011;37207;53.060;18.726;2023-02-01T16:15:30;50.70;;;28.40;;
51146;SDS011;37207;53.060;18.726;2023-02-01T16:17:57;22.90;;;17.50;;
51146;SDS011;37207;53.060;18.726;2023-02-01T16:20:24;19.80;;;13.20;;
51146;SDS011;37207;53.060;18.726;2023-02-01T16:22:50;25.20;;;12.00;;
51146;SDS011;37207;53.060;18.726;2023-02-01T16:25:17;15.30;;;8.50;;
51146;SDS011;37207;53.060;18.726;2023-02-01T16:27:44;14.90;;;6.40;;
51146;SDS011;37207;53.060;18.726;2023-02-01T16:30:10;18.40;;;11.20;;
51146;SDS011;37207;53.060;18.726;2023-02-01T16:32:37;27.80;;;14.80;;
51146;SDS011;37207;53.060;18.726;2023-02-01T16:35:09;13.20;;;8.20;;
51146;SDS011;37207;53.060;18.726;2023-02-01T16:37:46;26.10;;;17.80;;
51146;SDS011;37207;53.060;18.726;2023-02-01T16:40:16;17.10;;;9.60;;
51146;SDS011;37207;53.060;18.726;2023-02-01T16:42:45;75.00;;;28.00;;
51146;SDS011;37207;53.060;18.726;2023-02-01T16:45:14;89.10;;;29.40;;
51146;SDS011;37207;53.060;18.726;2023-02-01T16:47:41;37.80;;;16.50;;
51146;SDS011;37207;53.060;18.726;2023-02-01T16:50:15;55.00;;;22.60;;
51146;SDS011;37207;53.060;18.726;2023-02-01T16:52:43;27.50;;;15.40;;
51146;SDS011;37207;53.060;18.726;2023-02-01T16:55:12;31.00;;;16.80;;
51146;SDS011;37207;53.060;18.726;2023-02-01T16:57:42;53.10;;;22.20;;
51146;SDS011;37207;53.060;18.726;2023-02-01T17:00:10;43.80;;;22.10;;
51146;SDS011;37207;53.060;18.726;2023-02-01T17:02:38;17.50;;;7.80;;
51146;SDS011;37207;53.060;18.726;2023-02-01T17:05:05;80.80;;;46.40;;
51146;SDS011;37207;53.060;18.726;2023-02-01T17:07:32;62.00;;;35.30;;
51146;SDS011;37207;53.060;18.726;2023-02-01T17:09:59;75.70;;;35.20;;
51146;SDS011;37207;53.060;18.726;2023-02-01T17:12:27;37.20;;;23.70;;
51146;SDS011;37207;53.060;18.726;2023-02-01T17:14:56;73.30;;;37.70;;
51146;SDS011;37207;53.060;18.726;2023-02-01T17:17:30;92.80;;;45.90;;
51146;SDS011;37207;53.060;18.726;2023-02-01T17:20:03;88.10;;;29.30;;
51146;SDS011;37207;53.060;18.726;2023-02-01T17:22:30;77.70;;;45.30;;
51146;SDS011;37207;53.060;18.726;2023-02-01T17:24:57;26.30;;;18.10;;
51146;SDS011;37207;53.060;18.726;2023-02-01T17:27:24;19.80;;;11.80;;
51146;SDS011;37207;53.060;18.726;2023-02-01T17:29:50;21.10;;;12.90;;
51146;SDS011;37207;53.060;18.726;2023-02-01T17:32:20;12.70;;;7.10;;
51146;SDS011;37207;53.060;18.726;2023-02-01T17:34:49;63.00;;;35.90;;
51146;SDS011;37207;53.060;18.726;2023-02-01T17:39:48;56.10;;;29.10;;